Time;durP1;ratioP1;P1;durP2;ratioP2;P2;SDS_P1;SDS_P2;PMS_P1;PMS_P2;Temp;Humidity;BMP_temperature;BMP_pressure;BME280_temperature;BME280_humidity;BME280_pressure;Samples;Min_cycle;Max_cycle;Signal;HPM_P1;HPM_P2
2022/09/10 00:01:15;;;;;;;8.33;1.40;;;15.60;99.90;;;;;;5062101;28;20397;-73
2022/09/10 00:04:01;;;;;;;5.43;1.30;;;15.70;99.90;;;;;;5069716;28;20969;-74
2022/09/10 00:06:47;;;;;;;8.27;1.40;;;15.80;99.90;;;;;;5065479;28;20421;-72
2022/09/10 00:09:32;;;;;;;5.43;1.40;;;15.80;99.90;;;;;;5066267;28;20435;-74
2022/09/10 00:12:18;;;;;;;2.30;1.10;;;15.80;99.90;;;;;;5069888;28;20449;-73
2022/09/10 00:15:06;;;;;;;4.43;1.50;;;15.80;99.90;;;;;;5063310;28;20767;-73
2022/09/10 00:17:53;;;;;;;8.73;1.57;;;15.80;99.90;;;;;;5062403;28;20483;-73
2022/09/10 00:20:43;;;;;;;3.37;1.30;;;15.80;99.90;;;;;;5069732;28;20938;-75
2022/09/10 00:23:29;;;;;;;7.37;0.97;;;15.80;99.90;;;;;;5071054;28;20516;-74
2022/09/10 00:26:20;;;;;;;3.07;1.27;;;15.80;99.90;;;;;;5062729;28;20450;-74
2022/09/10 00:29:07;;;;;;;7.07;1.50;;;15.70;99.90;;;;;;5069575;28;20462;-73
2022/09/10 00:31:53;;;;;;;4.60;1.30;;;15.80;99.90;;;;;;5061848;28;20410;-74
2022/09/10 00:34:40;;;;;;;2.10;1.10;;;15.70;99.90;;;;;;5063909;28;20537;-73
2022/09/10 00:37:26;;;;;;;5.07;1.63;;;15.70;99.90;;;;;;5065451;28;20958;-73
2022/09/10 00:40:11;;;;;;;3.50;1.07;;;15.80;99.90;;;;;;5071250;28;20397;-75
2022/09/10 00:42:57;;;;;;;3.77;1.27;;;15.80;99.90;;;;;;5063431;28;20427;-73
2022/09/10 00:45:44;;;;;;;2.97;1.00;;;15.70;99.90;;;;;;5063643;28;20795;-73
2022/09/10 00:48:32;;;;;;;7.43;1.20;;;15.70;99.90;;;;;;5057001;28;20442;-74
2022/09/10 00:51:20;;;;;;;4.83;1.47;;;15.60;99.90;;;;;;5066409;28;20444;-75
2022/09/10 00:54:06;;;;;;;3.70;1.20;;;15.60;99.90;;;;;;5067732;28;20398;-72
2022/09/10 00:56:53;;;;;;;3.93;1.20;;;15.50;99.90;;;;;;5065945;28;20466;-72
2022/09/10 00:59:42;;;;;;;4.83;1.10;;;15.40;99.90;;;;;;5068825;28;20397;-73
2022/09/10 01:02:29;;;;;;;4.70;1.00;;;15.50;99.90;;;;;;5070609;28;20967;-73
2022/09/10 01:05:17;;;;;;;4.57;1.30;;;15.50;99.90;;;;;;5060570;28;20887;-73
2022/09/10 01:08:04;;;;;;;2.97;1.30;;;15.50;99.90;;;;;;5068230;28;20438;-73
2022/09/10 01:11:01;;;;;;;1.93;1.10;;;15.40;99.90;;;;;;5065036;28;20444;-72
2022/09/10 01:14:04;;;;;;;1.93;1.00;;;15.40;99.90;;;;;;5063170;28;20478;-73
2022/09/10 01:16:59;;;;;;;2.33;1.20;;;15.40;99.90;;;;;;5062783;28;20526;-72
2022/09/10 01:20:16;;;;;;;4.23;1.23;;;15.50;99.90;;;;;;5062404;28;20394;-73
2022/09/10 01:23:40;;;;;;;4.33;0.90;;;15.50;99.90;;;;;;5066599;28;20513;-73
2022/09/10 01:26:37;;;;;;;2.63;1.13;;;15.60;99.90;;;;;;5062558;28;20495;-73
2022/09/10 01:29:29;;;;;;;3.00;1.20;;;15.50;99.90;;;;;;5064760;28;20554;-73
2022/09/10 01:32:21;;;;;;;1.60;0.87;;;15.50;99.90;;;;;;5062811;28;20450;-73
2022/09/10 01:35:14;;;;;;;6.20;1.97;;;15.50;99.90;;;;;;5064588;28;20815;-72
2022/09/10 01:38:04;;;;;;;3.10;1.43;;;15.50;99.90;;;;;;5064763;28;20437;-72
2022/09/10 01:40:52;;;;;;;1.50;0.70;;;15.60;99.90;;;;;;5066488;28;20844;-72
2022/09/10 01:43:37;;;;;;;2.80;0.93;;;15.60;99.90;;;;;;5063859;28;20564;-73
2022/09/10 01:46:38;;;;;;;3.70;0.80;;;15.60;99.90;;;;;;5064422;28;20537;-73
2022/09/10 01:49:33;;;;;;;1.70;0.70;;;15.70;99.90;;;;;;5062985;28;20508;-72
2022/09/10 01:52:27;;;;;;;3.30;1.13;;;15.80;99.90;;;;;;5062705;28;20497;-72
2022/09/10 01:55:26;;;;;;;3.73;1.20;;;15.70;99.90;;;;;;5064798;28;20492;-73
2022/09/10 01:58:21;;;;;;;2.83;1.30;;;15.80;99.90;;;;;;5067029;28;20565;-72
2022/09/10 02:01:16;;;;;;;8.50;1.00;;;15.80;99.90;;;;;;5066598;28;20417;-72
2022/09/10 02:04:08;;;;;;;5.17;1.10;;;15.80;99.90;;;;;;5061097;28;20416;-73
2022/09/10 02:06:56;;;;;;;3.67;0.90;;;15.80;99.90;;;;;;5069387;28;20820;-72
2022/09/10 02:09:42;;;;;;;2.93;1.07;;;15.80;99.90;;;;;;5068903;28;20574;-72
2022/09/10 02:12:27;;;;;;;4.70;0.83;;;15.70;99.90;;;;;;5061715;28;20423;-72
2022/09/10 02:15:16;;;;;;;6.83;1.20;;;15.80;99.90;;;;;;5065319;28;20440;-72
2022/09/10 02:18:01;;;;;;;7.57;1.30;;;15.70;99.90;;;;;;5059839;28;20501;-72
2022/09/10 02:20:50;;;;;;;3.33;1.17;;;15.80;99.90;;;;;;5060497;28;20421;-73
2022/09/10 02:23:41;;;;;;;2.57;1.10;;;15.70;99.90;;;;;;5068159;28;20426;-72
2022/09/10 02:26:27;;;;;;;3.53;1.13;;;15.70;99.90;;;;;;5062323;28;20410;-74
2022/09/10 02:29:14;;;;;;;3.73;1.33;;;15.60;99.90;;;;;;5062627;28;20430;-74
2022/09/10 02:32:00;;;;;;;5.43;1.40;;;15.70;99.90;;;;;;5064861;28;20511;-73
2022/09/10 02:34:47;;;;;;;5.63;1.50;;;15.70;99.90;;;;;;5064629;28;20806;-73
2022/09/10 02:37:34;;;;;;;4.03;1.40;;;15.70;99.90;;;;;;5062775;28;20590;-73
2022/09/10 02:40:19;;;;;;;3.70;1.30;;;15.80;99.90;;;;;;5062822;28;20397;-73
2022/09/10 02:43:05;;;;;;;5.50;1.40;;;15.70;99.90;;;;;;5071714;28;20865;-73
2022/09/10 02:45:54;;;;;;;2.80;1.30;;;15.70;99.90;;;;;;5064687;28;20473;-73
2022/09/10 02:48:39;;;;;;;3.17;1.80;;;15.80;99.90;;;;;;5067065;28;21014;-73
2022/09/10 02:51:25;;;;;;;5.13;1.10;;;15.70;99.90;;;;;;5073048;28;20419;-72
2022/09/10 02:54:13;;;;;;;6.33;1.10;;;15.90;99.90;;;;;;5067136;28;20444;-74
2022/09/10 02:56:59;;;;;;;4.00;1.33;;;15.80;99.90;;;;;;5067749;28;20899;-73
2022/09/10 02:59:44;;;;;;;3.83;1.30;;;15.90;99.90;;;;;;5068650;28;20400;-73
2022/09/10 03:02:30;;;;;;;2.60;1.23;;;15.80;99.90;;;;;;5062652;28;20470;-72
2022/09/10 03:05:15;;;;;;;3.97;1.27;;;15.80;99.90;;;;;;5067878;28;20832;-72
2022/09/10 03:08:01;;;;;;;3.00;1.10;;;15.80;99.90;;;;;;5066976;28;20493;-73
2022/09/10 03:10:48;;;;;;;7.20;1.60;;;15.80;99.90;;;;;;5071373;28;20561;-73
2022/09/10 03:13:34;;;;;;;6.50;1.50;;;15.80;99.90;;;;;;5065915;28;20570;-75
2022/09/10 03:16:21;;;;;;;3.80;1.40;;;15.80;99.90;;;;;;5057763;28;20940;-72
2022/09/10 03:19:08;;;;;;;2.10;0.97;;;15.80;99.90;;;;;;5071584;28;20507;-73
2022/09/10 03:21:53;;;;;;;3.23;1.40;;;15.80;99.90;;;;;;5071395;28;20430;-72
2022/09/10 03:24:39;;;;;;;3.93;1.10;;;15.80;99.90;;;;;;5066328;28;20989;-72
2022/09/10 03:27:26;;;;;;;5.97;1.80;;;15.70;99.90;;;;;;5069886;28;20440;-74
2022/09/10 03:30:12;;;;;;;2.03;1.00;;;15.70;99.90;;;;;;5066259;28;20397;-72
2022/09/10 03:32:58;;;;;;;1.73;1.07;;;15.70;99.90;;;;;;5069900;28;20435;-72
2022/09/10 03:35:44;;;;;;;4.53;1.30;;;15.70;99.90;;;;;;5065929;28;20497;-72
2022/09/10 03:38:30;;;;;;;4.83;1.23;;;15.70;99.90;;;;;;5060588;28;20443;-73
2022/09/10 03:41:15;;;;;;;2.57;1.43;;;15.70;99.90;;;;;;5061202;28;20560;-73
2022/09/10 03:44:02;;;;;;;6.10;1.20;;;15.60;99.90;;;;;;5060257;28;20501;-72
2022/09/10 03:46:50;;;;;;;6.07;1.67;;;15.60;99.90;;;;;;5068460;28;20846;-72
2022/09/10 03:49:35;;;;;;;3.87;1.23;;;15.70;99.90;;;;;;5065761;28;20431;-75
2022/09/10 03:52:21;;;;;;;4.17;1.10;;;15.70;99.90;;;;;;5068173;28;20935;-73
2022/09/10 03:55:08;;;;;;;2.17;1.10;;;15.80;99.90;;;;;;5057067;28;20633;-72
2022/09/10 03:57:53;;;;;;;5.87;1.30;;;15.80;99.90;;;;;;5068668;28;20437;-72
2022/09/10 04:00:41;;;;;;;3.53;1.23;;;15.70;99.90;;;;;;5069058;28;20472;-72
2022/09/10 04:03:27;;;;;;;4.70;1.50;;;15.70;99.90;;;;;;5064716;28;20472;-72
2022/09/10 04:06:14;;;;;;;5.10;1.50;;;15.70;99.90;;;;;;5068301;28;20491;-72
2022/09/10 04:09:01;;;;;;;4.20;1.10;;;15.70;99.90;;;;;;5070625;28;20577;-73
2022/09/10 04:11:46;;;;;;;4.90;1.60;;;15.60;99.90;;;;;;5061296;28;20439;-73
2022/09/10 04:14:33;;;;;;;2.23;1.47;;;15.60;99.90;;;;;;5061856;28;20963;-73
2022/09/10 04:17:19;;;;;;;2.80;1.27;;;15.60;99.90;;;;;;5073202;28;20510;-73
2022/09/10 04:20:05;;;;;;;3.47;1.30;;;15.60;99.90;;;;;;5067592;28;20427;-73
2022/09/10 04:22:52;;;;;;;5.67;1.70;;;15.70;99.90;;;;;;5060591;28;20435;-75
2022/09/10 04:25:38;;;;;;;3.90;1.23;;;15.70;99.90;;;;;;5063259;28;20475;-72
2022/09/10 04:28:24;;;;;;;5.90;2.00;;;15.70;99.90;;;;;;5071093;28;20517;-72
2022/09/10 04:31:10;;;;;;;11.13;1.80;;;15.60;99.90;;;;;;5065621;28;20401;-73
2022/09/10 04:34:00;;;;;;;4.27;1.37;;;15.70;99.90;;;;;;5060707;28;20434;-73
2022/09/10 04:36:45;;;;;;;2.00;0.90;;;15.70;99.90;;;;;;5064906;28;20958;-73
2022/09/10 04:39:31;;;;;;;3.33;1.60;;;15.70;99.90;;;;;;5067557;28;20397;-74
2022/09/10 04:42:19;;;;;;;2.67;1.50;;;15.60;99.90;;;;;;5069310;28;21071;-72
2022/09/10 04:45:05;;;;;;;6.60;1.87;;;15.60;99.90;;;;;;5060554;28;20581;-72
2022/09/10 04:47:53;;;;;;;3.03;1.53;;;15.60;99.90;;;;;;5058450;28;20821;-73
2022/09/10 04:50:41;;;;;;;2.60;1.60;;;15.60;99.90;;;;;;5066754;28;20914;-72
2022/09/10 04:53:27;;;;;;;5.20;1.30;;;15.60;99.90;;;;;;5067918;28;20442;-72
2022/09/10 04:56:13;;;;;;;2.03;1.47;;;15.60;99.90;;;;;;5066004;28;20915;-72
2022/09/10 04:58:59;;;;;;;3.60;1.50;;;15.60;99.90;;;;;;5067287;28;20447;-72
2022/09/10 05:01:46;;;;;;;2.47;1.50;;;15.60;99.90;;;;;;5063267;28;20394;-72
2022/09/10 05:04:31;;;;;;;4.60;1.53;;;15.70;99.90;;;;;;5063552;28;20767;-73
2022/09/10 05:07:18;;;;;;;6.20;1.60;;;15.70;99.90;;;;;;5069525;28;20416;-72
2022/09/10 05:10:09;;;;;;;3.40;1.90;;;15.70;99.90;;;;;;5061527;28;20490;-72
2022/09/10 05:12:54;;;;;;;6.80;1.57;;;15.70;99.90;;;;;;5061092;28;20446;-72
2022/09/10 05:15:40;;;;;;;6.23;2.17;;;15.60;99.90;;;;;;5063057;28;20539;-73
2022/09/10 05:18:26;;;;;;;4.90;2.00;;;15.60;99.90;;;;;;5064956;28;20512;-72
2022/09/10 05:21:11;;;;;;;5.93;3.13;;;15.60;99.90;;;;;;5069718;28;20549;-73
2022/09/10 05:23:59;;;;;;;10.23;1.70;;;15.60;99.90;;;;;;5062467;28;20425;-72
2022/09/10 05:26:45;;;;;;;3.60;2.07;;;15.70;99.90;;;;;;5066041;28;20453;-73
2022/09/10 05:29:30;;;;;;;4.40;1.70;;;15.50;99.90;;;;;;5059795;28;20399;-72
2022/09/10 05:32:17;;;;;;;2.63;1.30;;;15.50;99.90;;;;;;5065651;28;20421;-76
2022/09/10 05:35:04;;;;;;;6.53;2.10;;;15.50;99.90;;;;;;5062548;28;20953;-74
2022/09/10 05:37:49;;;;;;;4.33;1.80;;;15.40;99.90;;;;;;5055835;28;20455;-72
2022/09/10 05:40:36;;;;;;;3.30;1.60;;;15.50;99.90;;;;;;5068130;28;20790;-73
2022/09/10 05:43:22;;;;;;;3.87;1.80;;;15.50;99.90;;;;;;5065390;28;20442;-72
2022/09/10 05:46:08;;;;;;;3.20;1.90;;;15.60;99.90;;;;;;5070232;28;20487;-72
2022/09/10 05:48:54;;;;;;;2.90;1.67;;;15.60;99.90;;;;;;5065850;28;20865;-72
2022/09/10 05:51:39;;;;;;;2.57;1.37;;;15.60;99.90;;;;;;5068784;28;21058;-73
2022/09/10 05:54:25;;;;;;;4.93;1.80;;;15.60;99.90;;;;;;5066970;28;20454;-73
2022/09/10 05:57:12;;;;;;;4.73;1.40;;;15.60;99.90;;;;;;5064505;28;20577;-72
2022/09/10 05:59:58;;;;;;;5.87;1.50;;;15.60;99.90;;;;;;5067443;28;20416;-73
2022/09/10 06:02:44;;;;;;;3.97;1.50;;;15.70;99.90;;;;;;5061882;28;20416;-73
2022/09/10 06:05:30;;;;;;;6.80;1.60;;;15.60;99.90;;;;;;5062722;28;20994;-72
2022/09/10 06:08:16;;;;;;;6.50;1.87;;;15.50;99.90;;;;;;5066210;28;20578;-72
2022/09/10 06:11:03;;;;;;;3.00;1.53;;;15.50;99.90;;;;;;5058624;28;20943;-73
2022/09/10 06:13:51;;;;;;;5.23;1.50;;;15.50;99.90;;;;;;5067798;28;20951;-72
2022/09/10 06:16:36;;;;;;;5.40;1.70;;;15.50;99.90;;;;;;5072735;28;20481;-72
2022/09/10 06:19:22;;;;;;;4.00;1.40;;;15.60;99.90;;;;;;5065775;28;20433;-73
2022/09/10 06:22:09;;;;;;;2.47;1.30;;;15.70;99.90;;;;;;5062368;28;20458;-73
2022/09/10 06:24:55;;;;;;;2.97;1.27;;;15.70;99.90;;;;;;5072058;28;20430;-72
2022/09/10 06:27:41;;;;;;;4.77;1.43;;;15.70;99.90;;;;;;5067869;28;20450;-73
2022/09/10 06:30:28;;;;;;;5.33;1.33;;;15.70;99.90;;;;;;5069009;28;20467;-73
2022/09/10 06:33:15;;;;;;;5.20;1.00;;;15.70;99.90;;;;;;5063237;28;20825;-72
2022/09/10 06:36:02;;;;;;;3.40;1.33;;;15.80;99.90;;;;;;5072427;28;20418;-73
2022/09/10 06:38:48;;;;;;;6.20;1.77;;;15.70;99.90;;;;;;5054568;28;20421;-72
2022/09/10 06:41:34;;;;;;;9.37;1.87;;;15.40;99.90;;;;;;5068869;28;20406;-75
2022/09/10 06:44:21;;;;;;;5.63;1.83;;;15.40;99.90;;;;;;5061478;28;20423;-72
2022/09/10 06:47:08;;;;;;;4.10;1.80;;;15.40;99.90;;;;;;5073704;28;20485;-72
2022/09/10 06:49:54;;;;;;;4.50;1.60;;;15.40;99.90;;;;;;5067530;28;20434;-72
2022/09/10 06:52:40;;;;;;;4.33;2.27;;;15.40;99.90;;;;;;5067979;28;20455;-73
2022/09/10 06:55:25;;;;;;;4.37;1.90;;;15.40;99.90;;;;;;5072883;28;20758;-71
2022/09/10 06:58:11;;;;;;;3.20;1.80;;;15.40;99.90;;;;;;5067812;28;20421;-74
2022/09/10 07:00:57;;;;;;;5.40;2.00;;;15.40;99.90;;;;;;5070574;28;20405;-72
2022/09/10 07:03:45;;;;;;;11.73;2.17;;;15.40;99.90;;;;;;5056103;28;20566;-72
2022/09/10 07:06:32;;;;;;;8.17;1.60;;;15.50;99.90;;;;;;5067147;28;20493;-73
2022/09/10 07:09:18;;;;;;;6.60;1.67;;;15.50;99.90;;;;;;5067084;28;20397;-74
2022/09/10 07:12:04;;;;;;;2.70;1.63;;;15.60;99.90;;;;;;5070857;28;20604;-72
2022/09/10 07:14:50;;;;;;;6.30;2.27;;;15.60;99.90;;;;;;5072662;28;20466;-74
2022/09/10 07:17:35;;;;;;;10.17;2.20;;;15.70;99.90;;;;;;5066481;28;20656;-72
2022/09/10 07:20:24;;;;;;;8.70;2.30;;;15.60;99.90;;;;;;5061813;28;20476;-72
2022/09/10 07:23:10;;;;;;;5.43;2.27;;;15.60;99.90;;;;;;5065900;28;20439;-72
2022/09/10 07:26:02;;;;;;;5.17;2.23;;;15.60;99.90;;;;;;5069745;28;20898;-74
2022/09/10 07:28:47;;;;;;;3.13;1.90;;;15.60;99.90;;;;;;5069396;28;20421;-72
2022/09/10 07:31:36;;;;;;;5.77;1.93;;;15.70;99.90;;;;;;5067999;28;20406;-72
2022/09/10 07:34:22;;;;;;;4.90;1.97;;;15.70;99.90;;;;;;5065355;28;20421;-72
2022/09/10 07:37:10;;;;;;;5.67;2.40;;;15.70;99.90;;;;;;5062637;28;20491;-72
2022/09/10 07:39:56;;;;;;;6.67;2.53;;;15.70;99.90;;;;;;5069234;28;20501;-72
2022/09/10 07:42:43;;;;;;;4.77;2.23;;;15.80;99.90;;;;;;5064960;28;20499;-71
2022/09/10 07:45:29;;;;;;;7.90;2.27;;;15.70;99.90;;;;;;5067428;28;20568;-72
2022/09/10 07:48:14;;;;;;;7.77;2.20;;;15.60;99.90;;;;;;5072712;28;20446;-72
2022/09/10 07:51:05;;;;;;;4.87;2.40;;;15.60;99.90;;;;;;5070925;28;20426;-72
2022/09/10 07:53:54;;;;;;;5.73;2.60;;;15.50;99.90;;;;;;5062736;28;20987;-72
2022/09/10 07:56:39;;;;;;;6.80;2.60;;;15.60;99.90;;;;;;5066594;28;20401;-72
2022/09/10 07:59:25;;;;;;;5.67;2.50;;;15.60;99.90;;;;;;5062800;28;20938;-73
2022/09/10 08:02:14;;;;;;;5.13;2.23;;;15.60;99.90;;;;;;5066998;28;20442;-73
2022/09/10 08:04:59;;;;;;;7.37;2.40;;;15.60;99.90;;;;;;5071421;28;20401;-72
2022/09/10 08:07:45;;;;;;;4.90;2.00;;;15.70;99.90;;;;;;5060736;28;20593;-73
2022/09/10 08:10:32;;;;;;;9.40;2.87;;;15.70;99.90;;;;;;5066472;28;20582;-72
2022/09/10 08:13:18;;;;;;;7.70;2.10;;;15.80;99.90;;;;;;5069808;28;20451;-72
2022/09/10 08:16:09;;;;;;;4.93;2.07;;;15.80;99.90;;;;;;5066631;28;21012;-73
2022/09/10 08:18:56;;;;;;;6.63;2.00;;;15.80;99.90;;;;;;5060978;28;20487;-72
2022/09/10 08:21:43;;;;;;;14.40;4.33;;;15.90;99.90;;;;;;5064383;28;21083;-73
2022/09/10 08:24:29;;;;;;;9.33;4.07;;;16.00;99.90;;;;;;5068374;28;20557;-72
2022/09/10 08:27:17;;;;;;;5.40;1.90;;;16.10;99.90;;;;;;5069894;28;20502;-72
2022/09/10 08:30:03;;;;;;;5.93;2.23;;;16.10;99.90;;;;;;5066343;28;20413;-73
2022/09/10 08:32:49;;;;;;;4.83;2.17;;;16.10;99.90;;;;;;5068801;28;20425;-73
2022/09/10 08:35:36;;;;;;;4.70;2.17;;;16.20;99.90;;;;;;5064481;28;20413;-72
2022/09/10 08:38:21;;;;;;;3.57;1.90;;;16.20;99.90;;;;;;5064769;28;20548;-72
2022/09/10 08:41:12;;;;;;;4.60;2.40;;;16.30;99.90;;;;;;5069011;28;20401;-72
2022/09/10 08:44:03;;;;;;;5.97;2.27;;;16.40;99.90;;;;;;5071084;28;20491;-72
2022/09/10 08:46:56;;;;;;;10.23;2.10;;;16.50;99.90;;;;;;5069215;28;20448;-72
2022/09/10 08:49:48;;;;;;;6.37;2.10;;;16.50;99.90;;;;;;5056644;28;20943;-72
2022/09/10 08:52:41;;;;;;;9.37;2.47;;;16.50;99.90;;;;;;5066062;28;20498;-73
2022/09/10 08:55:31;;;;;;;7.10;2.00;;;16.50;99.90;;;;;;5064783;28;20431;-73
2022/09/10 08:58:22;;;;;;;7.33;2.03;;;16.60;99.90;;;;;;5065035;28;21037;-74
2022/09/10 09:01:14;;;;;;;7.33;1.87;;;16.70;99.90;;;;;;5067270;28;20585;-73
2022/09/10 09:04:02;;;;;;;8.33;2.30;;;16.80;99.90;;;;;;5070099;28;20408;-72
2022/09/10 09:06:52;;;;;;;4.83;2.20;;;16.70;99.90;;;;;;5063896;28;20486;-72
2022/09/10 09:09:37;;;;;;;7.30;3.07;;;16.80;99.90;;;;;;5064562;28;20410;-72
2022/09/10 09:12:33;;;;;;;3.37;2.00;;;16.90;99.90;;;;;;5068378;28;20417;-74
2022/09/10 09:15:26;;;;;;;4.33;1.90;;;16.90;99.90;;;;;;5066091;28;20523;-72
2022/09/10 09:18:24;;;;;;;7.00;1.97;;;16.90;99.90;;;;;;5061904;28;21016;-72
2022/09/10 09:21:16;;;;;;;5.17;2.20;;;17.00;99.90;;;;;;5066259;28;20467;-73
2022/09/10 09:24:05;;;;;;;9.97;1.97;;;16.80;99.90;;;;;;5068440;28;20423;-73
2022/09/10 09:26:56;;;;;;;5.30;2.00;;;16.80;99.90;;;;;;5063961;28;20825;-72
2022/09/10 09:29:47;;;;;;;5.00;2.20;;;16.90;99.90;;;;;;5065448;28;20521;-73
2022/09/10 09:32:36;;;;;;;5.20;1.80;;;16.90;99.90;;;;;;5062023;28;20448;-72
2022/09/10 09:35:32;;;;;;;9.03;3.07;;;17.00;99.90;;;;;;5064515;28;20527;-72
2022/09/10 09:38:22;;;;;;;9.60;2.40;;;17.00;99.90;;;;;;5063784;28;20797;-73
2022/09/10 09:41:16;;;;;;;4.73;1.80;;;17.00;99.90;;;;;;5066381;28;20446;-73
2022/09/10 09:44:12;;;;;;;5.43;2.90;;;17.10;99.90;;;;;;5065100;28;20949;-73
2022/09/10 09:46:57;;;;;;;6.73;2.23;;;17.10;99.90;;;;;;5068238;28;20828;-72
2022/09/10 09:49:43;;;;;;;5.53;2.07;;;17.00;99.90;;;;;;5067382;28;20789;-73
2022/09/10 09:52:31;;;;;;;17.83;4.40;;;17.00;99.90;;;;;;5071998;28;20645;-72
2022/09/10 09:55:27;;;;;;;4.50;2.20;;;17.20;99.90;;;;;;5069100;28;20390;-73
2022/09/10 09:58:31;;;;;;;6.33;1.90;;;17.30;99.90;;;;;;5073371;28;20417;-72
2022/09/10 10:01:20;;;;;;;3.83;1.80;;;17.30;99.90;;;;;;5063830;28;20581;-72
2022/09/10 10:04:20;;;;;;;9.63;2.30;;;17.40;99.90;;;;;;5068397;28;20792;-72
2022/09/10 10:07:05;;;;;;;14.00;3.73;;;17.50;99.90;;;;;;5070881;28;20474;-72
2022/09/10 10:09:53;;;;;;;8.33;2.77;;;17.60;99.90;;;;;;5067659;28;20446;-73
2022/09/10 10:12:48;;;;;;;4.00;2.20;;;17.80;99.90;;;;;;5068638;28;20427;-72
2022/09/10 10:15:36;;;;;;;6.03;2.10;;;17.90;99.90;;;;;;5062499;28;20500;-72
2022/09/10 10:18:31;;;;;;;5.70;2.10;;;17.90;99.90;;;;;;5071241;22;20491;-78
2022/09/10 10:21:19;;;;;;;6.57;1.87;;;17.90;99.90;;;;;;5059890;28;20446;-78
2022/09/10 10:24:04;;;;;;;5.20;1.90;;;17.90;99.90;;;;;;5058560;28;20432;-77
2022/09/10 10:26:51;;;;;;;4.37;1.80;;;17.80;99.90;;;;;;5058819;28;20499;-77
2022/09/10 10:29:38;;;;;;;9.90;1.93;;;17.80;99.90;;;;;;5038285;28;20432;-77
2022/09/10 10:32:31;;;;;;;6.10;2.10;;;17.60;99.90;;;;;;5041614;28;20530;-78
2022/09/10 10:35:41;;;;;;;4.93;2.10;;;17.60;99.90;;;;;;5034228;28;20916;-75
2022/09/10 10:38:33;;;;;;;5.00;2.13;;;17.50;99.90;;;;;;5033654;28;20444;-75
2022/09/10 10:41:50;;;;;;;6.27;2.30;;;17.30;99.90;;;;;;5029776;28;20457;-75
2022/09/10 10:45:16;;;;;;;7.87;1.90;;;17.30;99.90;;;;;;5029129;28;20407;-74
2022/09/10 10:48:08;;;;;;;5.73;2.30;;;17.30;99.90;;;;;;5002986;28;21020;-75
2022/09/10 10:51:01;;;;;;;7.80;2.53;;;17.30;99.90;;;;;;5033039;28;20969;-75
2022/09/10 10:54:04;;;;;;;7.20;1.97;;;17.40;99.90;;;;;;5038885;28;20479;-74
2022/09/10 10:56:56;;;;;;;12.50;2.30;;;17.20;99.90;;;;;;5033897;28;20395;-76
2022/09/10 10:59:54;;;;;;;6.67;2.37;;;17.20;99.90;;;;;;5032219;28;20562;-76
2022/09/10 11:02:49;;;;;;;4.03;2.00;;;17.30;99.90;;;;;;5035259;28;20534;-75
2022/09/10 11:05:38;;;;;;;5.53;1.83;;;17.10;99.90;;;;;;5029072;28;20937;-75
2022/09/10 11:08:29;;;;;;;7.47;1.90;;;17.10;99.90;;;;;;5033343;28;20837;-75
2022/09/10 11:11:18;;;;;;;10.80;1.80;;;17.10;99.90;;;;;;5036202;28;20943;-74
2022/09/10 11:14:18;;;;;;;7.80;2.30;;;17.10;99.90;;;;;;5035844;28;20433;-76
2022/09/10 11:17:10;;;;;;;7.40;2.73;;;17.10;99.90;;;;;;5033496;28;20395;-75
2022/09/10 11:20:03;;;;;;;4.10;2.30;;;17.10;99.90;;;;;;5031102;28;20545;-75
2022/09/10 11:22:54;;;;;;;8.40;2.10;;;17.10;99.90;;;;;;5031261;28;20419;-74
2022/09/10 11:25:50;;;;;;;5.50;1.80;;;17.20;99.90;;;;;;5032757;28;20456;-75
2022/09/10 11:28:39;;;;;;;6.17;2.40;;;17.20;99.90;;;;;;5028109;28;20450;-75
2022/09/10 11:31:31;;;;;;;4.10;1.80;;;17.30;99.90;;;;;;5030773;28;20982;-76
2022/09/10 11:34:25;;;;;;;4.20;2.20;;;17.30;99.90;;;;;;5040337;28;20506;-75
2022/09/10 11:37:18;;;;;;;4.53;2.10;;;17.20;99.90;;;;;;5025020;28;20497;-75
2022/09/10 11:40:12;;;;;;;9.30;2.43;;;17.20;99.90;;;;;;5031030;28;20458;-75
2022/09/10 11:43:03;;;;;;;7.47;2.00;;;17.10;99.90;;;;;;5032481;28;20428;-75
2022/09/10 11:45:53;;;;;;;8.57;2.27;;;17.20;99.90;;;;;;5032715;28;20403;-75
2022/09/10 11:48:43;;;;;;;5.53;2.37;;;17.20;99.90;;;;;;5031694;28;20476;-75
2022/09/10 11:51:33;;;;;;;7.63;2.20;;;17.20;99.90;;;;;;5039062;28;20643;-75
2022/09/10 11:54:27;;;;;;;6.23;2.70;;;17.20;99.90;;;;;;5032339;28;20764;-74
2022/09/10 11:57:23;;;;;;;4.60;2.23;;;17.20;99.90;;;;;;5035362;28;20511;-75
2022/09/10 12:00:14;;;;;;;6.10;2.47;;;17.20;99.90;;;;;;5031968;28;20448;-75
2022/09/10 12:03:37;;;;;;;4.27;1.87;;;17.20;99.90;;;;;;5030351;28;20815;-75
2022/09/10 12:06:30;;;;;;;4.50;2.30;;;17.20;99.90;;;;;;5032262;28;20418;-76
2022/09/10 12:09:23;;;;;;;10.37;2.80;;;17.20;99.90;;;;;;5030524;28;20460;-75
2022/09/10 12:12:18;;;;;;;8.30;2.43;;;17.20;99.90;;;;;;5035553;28;20424;-75
2022/09/10 12:15:08;;;;;;;7.50;2.13;;;17.10;99.90;;;;;;5032653;28;20576;-75
2022/09/10 12:17:58;;;;;;;13.53;3.83;;;17.00;99.90;;;;;;5021468;28;20489;-75
2022/09/10 12:20:52;;;;;;;5.33;2.27;;;17.10;99.90;;;;;;5032351;28;20452;-74
2022/09/10 12:23:39;;;;;;;5.60;2.20;;;17.20;99.90;;;;;;5029242;28;20421;-75
2022/09/10 12:26:27;;;;;;;6.53;2.73;;;17.20;99.90;;;;;;5026040;28;20534;-75
2022/09/10 12:29:33;;;;;;;6.93;2.00;;;17.20;99.90;;;;;;5029444;28;20896;-75
2022/09/10 12:32:29;;;;;;;7.67;3.57;;;17.20;99.90;;;;;;5031705;28;20556;-75
2022/09/10 12:35:46;;;;;;;7.97;2.53;;;17.20;99.90;;;;;;5031823;28;21076;-75
2022/09/10 12:38:55;;;;;;;13.77;4.77;;;17.20;99.90;;;;;;5026362;28;20453;-75
2022/09/10 12:42:00;;;;;;;18.63;2.40;;;17.20;99.90;;;;;;5028043;28;20437;-75
2022/09/10 12:44:47;;;;;;;10.53;3.07;;;17.20;99.90;;;;;;5028862;28;20916;-76
2022/09/10 12:47:51;;;;;;;7.50;2.50;;;17.20;99.90;;;;;;5031580;28;20523;-75
2022/09/10 12:50:44;;;;;;;5.90;2.30;;;17.10;99.90;;;;;;5039185;28;20821;-75
2022/09/10 12:54:01;;;;;;;3.77;2.13;;;17.20;99.90;;;;;;5037246;28;20961;-74
2022/09/10 12:57:15;;;;;;;6.47;3.37;;;17.10;99.90;;;;;;5031180;28;20420;-75
2022/09/10 13:00:12;;;;;;;11.10;2.70;;;17.10;99.90;;;;;;5028045;28;20485;-75
2022/09/10 13:03:10;;;;;;;9.27;3.73;;;17.20;99.90;;;;;;5030853;28;20429;-75
2022/09/10 13:05:59;;;;;;;8.20;3.10;;;17.30;99.90;;;;;;5029357;28;20410;-75
2022/09/10 13:08:47;;;;;;;6.10;3.83;;;17.50;99.90;;;;;;5026873;28;20567;-76
2022/09/10 13:11:36;;;;;;;4.43;2.60;;;17.60;99.90;;;;;;5026216;28;20802;-75
2022/09/10 13:14:27;;;;;;;7.87;1.70;;;17.80;99.90;;;;;;5031315;28;20522;-75
2022/09/10 13:17:37;;;;;;;5.20;1.90;;;17.70;99.90;;;;;;5028793;28;20411;-76
2022/09/10 13:20:33;;;;;;;5.67;1.40;;;17.70;99.90;;;;;;5028163;28;20571;-74
2022/09/10 13:23:22;;;;;;;5.73;1.70;;;17.90;99.90;;;;;;5028796;28;20416;-75
2022/09/10 13:26:44;;;;;;;2.53;1.37;;;17.90;99.90;;;;;;5030619;28;20482;-74
2022/09/10 13:29:34;;;;;;;4.00;1.60;;;17.90;99.90;;;;;;5029065;28;20465;-75
2022/09/10 13:32:28;;;;;;;7.50;3.10;;;18.00;99.90;;;;;;5034541;28;20421;-75
2022/09/10 13:35:46;;;;;;;4.03;1.67;;;18.10;99.90;;;;;;5028943;28;20790;-75
2022/09/10 13:39:19;;;;;;;4.53;1.63;;;18.00;99.90;;;;;;5023318;28;20487;-75
2022/09/10 13:42:23;;;;;;;1.87;0.90;;;18.10;99.90;;;;;;4943222;29;20513;-75
2022/09/10 13:45:28;;;;;;;5.50;1.40;;;18.30;99.90;;;;;;4949611;28;20395;-74
2022/09/10 13:48:17;;;;;;;5.40;1.87;;;18.30;99.90;;;;;;5028687;28;21112;-75
2022/09/10 13:51:12;;;;;;;4.77;2.47;;;18.20;99.90;;;;;;5030433;28;20436;-75
2022/09/10 13:54:06;;;;;;;3.30;1.67;;;18.20;99.90;;;;;;5029118;28;20432;-75
2022/09/10 13:56:53;;;;;;;6.90;1.30;;;18.40;99.90;;;;;;5030704;28;20421;-75
2022/09/10 13:59:41;;;;;;;2.30;1.00;;;18.40;99.90;;;;;;5027178;28;20572;-75
2022/09/10 14:02:46;;;;;;;3.17;1.20;;;18.50;99.90;;;;;;5030190;28;20436;-75
2022/09/10 14:05:36;;;;;;;10.33;1.10;;;18.50;99.90;;;;;;5025062;28;21008;-76
2022/09/10 14:08:25;;;;;;;3.47;1.20;;;18.50;99.90;;;;;;5020414;28;20670;-75
2022/09/10 14:11:19;;;;;;;5.00;1.37;;;18.50;99.90;;;;;;5029090;28;20795;-76
2022/09/10 14:14:06;;;;;;;1.80;0.90;;;18.50;99.90;;;;;;5029869;28;20949;-75
2022/09/10 14:16:55;;;;;;;1.90;1.10;;;18.50;99.90;;;;;;5030308;28;20441;-76
2022/09/10 14:19:48;;;;;;;3.50;1.07;;;18.50;99.90;;;;;;5028187;28;20554;-76
2022/09/10 14:22:34;;;;;;;2.20;0.80;;;18.50;99.90;;;;;;5028398;28;20407;-75
2022/09/10 14:25:30;;;;;;;3.77;1.10;;;18.50;99.90;;;;;;5030390;28;20428;-75
2022/09/10 14:28:24;;;;;;;2.20;1.00;;;18.50;99.90;;;;;;5023679;28;20467;-76
2022/09/10 14:31:20;;;;;;;2.00;1.17;;;18.40;99.90;;;;;;5032030;28;20949;-76
2022/09/10 14:34:30;;;;;;;2.00;1.10;;;18.50;99.90;;;;;;5030139;28;20484;-75
2022/09/10 14:37:33;;;;;;;3.57;1.30;;;18.50;99.90;;;;;;5026649;28;20567;-75
2022/09/10 14:40:21;;;;;;;3.13;1.33;;;18.30;99.90;;;;;;5033812;28;20406;-75
2022/09/10 14:43:26;;;;;;;9.00;4.47;;;18.20;99.90;;;;;;5034194;28;20432;-75
2022/09/10 14:46:34;;;;;;;2.20;1.20;;;18.10;99.90;;;;;;5033572;28;20403;-75